Terminal Aerodrome Forecast
Issued by NWS

Home | Current Version | Previous Version | Text Only | Print | Product List | Glossary On
Versions: 1 2 3 4 5 6 7 8 9 10 11 12 13 14 15 16 17 18 19 20 21 22 23 24 25 26 27 28
865
FTUS43 KICT 191836 AAA
TAFCNU
TAF AMD
KCNU 191836Z 1919/2018 08012KT P6SM OVC050
     FM192100 08013KT 5SM RA OVC015
     FM200900 09013KT 5SM RA OVC008
     FM201400 01012KT P6SM OVC007=

USA.gov is the U.S. government's official web portal to all federal, state and local government web resources and services.